Time;durP1;ratioP1;P1;durP2;ratioP2;P2;SDS_P1;SDS_P2;PMS_P1;PMS_P2;Temp;Humidity;BMP_temperature;BMP_pressure;BME280_temperature;BME280_humidity;BME280_pressure;Samples;Min_cycle;Max_cycle;Signal;HPM_P1;HPM_P2
2023/01/11 00:00:48;;;;;;;5.68;4.05;;;-0.60;99.90;;;;;;5032539;28;20052;-87
2023/01/11 00:03:17;;;;;;;4.97;4.57;;;-0.70;99.90;;;;;;5009514;28;20045;-87
2023/01/11 00:05:45;;;;;;;3.75;3.45;;;-0.60;99.90;;;;;;4994473;28;20054;-86
2023/01/11 00:08:12;;;;;;;3.53;3.28;;;-0.60;99.90;;;;;;4978525;28;20049;-87
2023/01/11 00:10:40;;;;;;;3.58;3.10;;;-0.60;99.90;;;;;;5012261;28;20053;-87
2023/01/11 00:13:08;;;;;;;4.30;3.92;;;-0.50;99.90;;;;;;4979399;28;20041;-87
2023/01/11 00:15:37;;;;;;;3.70;3.30;;;-0.50;99.90;;;;;;5012437;28;20430;-87
2023/01/11 00:18:05;;;;;;;3.50;3.20;;;-0.50;99.90;;;;;;5013608;28;20045;-88
2023/01/11 00:20:32;;;;;;;3.33;2.83;;;-0.40;99.90;;;;;;4979309;28;20042;-88
2023/01/11 00:23:00;;;;;;;3.95;3.60;;;-0.40;99.90;;;;;;4998284;28;20579;-86
2023/01/11 00:25:28;;;;;;;4.45;3.13;;;-0.40;99.90;;;;;;4998872;28;20737;-87
2023/01/11 00:27:55;;;;;;;4.75;4.28;;;-0.30;99.90;;;;;;5014687;28;20057;-88
2023/01/11 00:30:24;;;;;;;3.13;2.92;;;-0.30;99.90;;;;;;4999069;28;20045;-86
2023/01/11 00:32:59;;;;;;;5.13;3.10;;;-0.40;99.90;;;;;;5014775;28;20048;-87
2023/01/11 00:35:30;;;;;;;6.22;3.67;;;-0.40;99.90;;;;;;5031714;28;20049;-88
2023/01/11 00:37:57;;;;;;;4.00;3.70;;;-0.40;99.90;;;;;;5014390;28;20060;-87
2023/01/11 00:40:25;;;;;;;10.35;4.70;;;-0.30;99.90;;;;;;4987925;28;20056;-87
2023/01/11 00:47:55;;;;;;;4.00;3.67;;;-0.20;99.90;;;;;;4995265;28;20050;-88
2023/01/11 00:48:46;;;;;;;3.65;3.35;;;-0.20;99.90;;;;;;4994799;28;20049;-87
2023/01/11 00:51:14;;;;;;;4.97;4.57;;;-0.10;99.90;;;;;;4995537;28;20046;-86
2023/01/11 00:53:42;;;;;;;3.63;2.92;;;-0.10;99.90;;;;;;4994012;28;20050;-87
2023/01/11 00:56:09;;;;;;;3.33;3.03;;;0.00;99.90;;;;;;4979495;28;20053;-87
2023/01/11 00:58:37;;;;;;;2.50;2.28;;;-0.10;99.90;;;;;;4996693;28;20049;-87
2023/01/11 01:01:06;;;;;;;6.80;6.15;;;-0.10;99.90;;;;;;4979666;28;20053;-88
2023/01/11 01:03:35;;;;;;;4.22;2.40;;;-0.10;99.90;;;;;;4995962;28;20045;-87
2023/01/11 01:06:03;;;;;;;7.10;3.40;;;-0.10;99.90;;;;;;4996258;28;20043;-86
2023/01/11 01:08:30;;;;;;;4.95;3.95;;;-0.10;99.90;;;;;;5012075;28;20053;-87
2023/01/11 01:10:58;;;;;;;4.05;3.75;;;0.00;99.90;;;;;;5013289;28;20046;-87
2023/01/11 01:16:12;;;;;;;3.13;2.83;;;0.10;99.90;;;;;;5013580;28;20054;-87
2023/01/11 01:18:40;;;;;;;2.47;2.33;;;0.10;99.90;;;;;;4980044;28;20060;-88
2023/01/11 01:21:40;;;;;;;4.50;3.28;;;0.10;99.90;;;;;;5012497;28;20042;-88
2023/01/11 01:24:08;;;;;;;3.28;2.53;;;0.20;99.90;;;;;;4994586;28;20037;-87
2023/01/11 01:26:36;;;;;;;3.25;2.95;;;0.20;99.90;;;;;;4996114;28;20065;-87
2023/01/11 01:29:03;;;;;;;7.60;4.00;;;0.10;99.90;;;;;;4995341;28;20042;-87
2023/01/11 01:31:31;;;;;;;3.00;2.58;;;0.10;99.90;;;;;;5004083;28;20057;-87
2023/01/11 01:33:59;;;;;;;5.18;4.15;;;0.00;99.90;;;;;;4974450;28;20046;-87
2023/01/11 01:36:26;;;;;;;3.83;3.53;;;0.10;99.90;;;;;;4992734;28;20046;-87
2023/01/11 01:38:54;;;;;;;3.92;3.33;;;0.10;99.90;;;;;;4956754;28;20446;-87
2023/01/11 01:41:22;;;;;;;2.70;2.25;;;0.20;99.90;;;;;;4975602;28;20053;-87
2023/01/11 01:43:52;;;;;;;5.20;2.30;;;0.20;99.90;;;;;;4994111;28;20039;-87
2023/01/11 01:46:24;;;;;;;3.40;3.10;;;0.20;99.90;;;;;;4993627;28;20046;-87
2023/01/11 01:53:51;;;;;;;4.72;3.55;;;0.30;99.90;;;;;;4991110;28;20034;-86
2023/01/11 01:56:26;;;;;;;3.47;3.25;;;0.20;99.90;;;;;;4960941;28;20039;-87
2023/01/11 01:58:59;;;;;;;3.53;3.22;;;0.20;99.90;;;;;;4995007;28;20050;-87
2023/01/11 02:01:45;;;;;;;6.65;5.97;;;0.20;99.90;;;;;;5008701;28;20030;-82
2023/01/11 02:04:20;;;;;;;2.92;2.40;;;0.20;99.90;;;;;;5002348;28;20049;-81
2023/01/11 02:06:49;;;;;;;2.72;2.53;;;0.20;99.90;;;;;;4978432;28;20045;-81
2023/01/11 02:09:40;;;;;;;2.90;2.70;;;0.30;99.90;;;;;;4995211;28;20030;-81
2023/01/11 02:12:08;;;;;;;4.00;3.28;;;0.30;99.90;;;;;;4980616;28;20027;-81
2023/01/11 02:14:38;;;;;;;4.88;4.47;;;0.40;99.90;;;;;;4993684;28;20051;-81
2023/01/11 02:17:08;;;;;;;3.17;2.90;;;0.40;99.90;;;;;;4980487;28;20039;-81
2023/01/11 02:20:09;;;;;;;3.35;3.05;;;0.40;99.90;;;;;;4996962;28;20294;-81
2023/01/11 02:22:46;;;;;;;5.93;3.05;;;0.40;99.90;;;;;;4987870;28;20055;-81
2023/01/11 02:25:32;;;;;;;3.92;3.63;;;0.40;99.90;;;;;;4993402;28;20049;-81
2023/01/11 02:28:30;;;;;;;3.78;3.25;;;0.40;99.90;;;;;;4995327;28;20031;-81
2023/01/11 02:31:00;;;;;;;3.47;3.17;;;0.40;99.90;;;;;;4982029;28;20043;-81
2023/01/11 02:33:40;;;;;;;2.65;2.55;;;0.40;99.90;;;;;;4996942;28;20055;-81
2023/01/11 02:36:38;;;;;;;5.72;3.42;;;0.40;99.90;;;;;;5011323;28;20034;-81
2023/01/11 02:39:29;;;;;;;4.22;3.85;;;0.40;99.90;;;;;;4984220;28;20042;-81
2023/01/11 02:45:20;;;;;;;3.83;3.53;;;0.50;99.90;;;;;;5011092;28;20035;-81
2023/01/11 02:48:18;;;;;;;3.10;2.90;;;0.50;99.90;;;;;;4997239;28;20027;-81
2023/01/11 02:50:59;;;;;;;4.22;3.80;;;0.40;99.90;;;;;;4961300;28;20067;-80
2023/01/11 02:53:48;;;;;;;3.28;3.08;;;0.40;99.90;;;;;;5011395;28;20057;-81
2023/01/11 02:56:19;;;;;;;5.10;4.60;;;0.40;99.90;;;;;;5012563;28;20046;-81
2023/01/11 02:58:51;;;;;;;4.18;3.83;;;0.40;99.90;;;;;;4997785;28;20045;-81
2023/01/11 03:01:21;;;;;;;4.80;3.15;;;0.40;99.90;;;;;;4980061;28;20043;-80
2023/01/11 03:03:50;;;;;;;7.70;3.85;;;0.50;99.90;;;;;;5003431;28;20138;-81
2023/01/11 03:06:29;;;;;;;4.10;3.58;;;0.40;99.90;;;;;;4993866;28;20053;-80
2023/01/11 03:09:12;;;;;;;2.13;2.03;;;0.40;99.90;;;;;;4971582;28;20047;-80
2023/01/11 03:15:22;;;;;;;4.82;2.95;;;0.50;99.90;;;;;;4973761;28;20057;-80
2023/01/11 03:18:12;;;;;;;3.25;2.95;;;0.50;99.90;;;;;;4989615;28;20433;-80
2023/01/11 03:20:48;;;;;;;6.35;3.95;;;0.50;99.90;;;;;;4992814;28;20042;-80
2023/01/11 03:23:32;;;;;;;3.10;2.80;;;0.50;99.90;;;;;;4985218;28;20050;-80
2023/01/11 03:26:11;;;;;;;3.63;3.30;;;0.40;99.90;;;;;;4946862;28;20058;-80
2023/01/11 03:29:00;;;;;;;2.65;2.45;;;0.50;99.90;;;;;;4956021;28;20418;-80
2023/01/11 03:31:44;;;;;;;3.03;2.53;;;0.50;99.90;;;;;;4955773;28;20533;-80
2023/01/11 03:34:30;;;;;;;2.50;2.22;;;0.50;99.90;;;;;;4956786;28;20086;-80
2023/01/11 03:37:03;;;;;;;2.00;1.85;;;0.60;99.90;;;;;;4939651;28;20055;-80
2023/01/11 03:39:46;;;;;;;2.60;2.33;;;0.60;99.90;;;;;;4954927;28;20062;-80
2023/01/11 03:42:19;;;;;;;3.85;3.55;;;0.60;99.90;;;;;;4940510;28;20055;-80
2023/01/11 03:44:51;;;;;;;3.10;2.88;;;0.60;99.90;;;;;;4940260;28;20055;-80
2023/01/11 03:47:22;;;;;;;3.13;2.85;;;0.60;99.90;;;;;;4939956;28;20061;-80
2023/01/11 03:49:55;;;;;;;3.08;2.83;;;0.60;99.90;;;;;;4970946;28;20038;-80
2023/01/11 03:52:28;;;;;;;3.55;2.75;;;0.60;99.90;;;;;;4954034;28;20094;-80
2023/01/11 03:54:57;;;;;;;4.85;3.53;;;0.60;99.90;;;;;;4955809;28;20541;-80
2023/01/11 03:57:35;;;;;;;9.30;3.15;;;0.60;99.90;;;;;;4960711;28;20054;-79
2023/01/11 04:00:04;;;;;;;3.83;3.53;;;0.60;99.90;;;;;;4993268;28;20494;-80
2023/01/11 04:02:39;;;;;;;5.85;4.43;;;0.60;99.90;;;;;;4994121;28;20050;-79
2023/01/11 04:05:09;;;;;;;3.40;3.20;;;0.60;99.90;;;;;;4974204;28;20051;-80
2023/01/11 04:07:36;;;;;;;2.40;2.20;;;0.60;99.90;;;;;;4967337;28;20058;-79
2023/01/11 04:10:05;;;;;;;3.75;3.40;;;0.50;99.90;;;;;;4988687;28;20549;-80
2023/01/11 04:12:33;;;;;;;2.45;2.35;;;0.50;99.90;;;;;;4956492;28;20054;-80
2023/01/11 04:15:04;;;;;;;2.67;2.47;;;0.50;99.90;;;;;;4988560;28;20557;-80
2023/01/11 04:17:31;;;;;;;2.05;1.92;;;0.50;99.90;;;;;;4951252;28;20050;-80
2023/01/11 04:19:59;;;;;;;1.73;1.60;;;0.60;99.90;;;;;;4972327;28;20054;-80
2023/01/11 04:22:27;;;;;;;1.92;1.83;;;0.60;99.90;;;;;;4972642;28;20055;-80
2023/01/11 04:24:54;;;;;;;3.95;2.47;;;0.60;99.90;;;;;;4972942;28;20776;-80
2023/01/11 04:27:22;;;;;;;5.00;2.03;;;0.60;99.90;;;;;;4966379;28;20062;-79
2023/01/11 04:29:50;;;;;;;5.07;2.13;;;0.60;99.90;;;;;;4973313;28;20050;-80
2023/01/11 04:32:17;;;;;;;6.10;2.65;;;0.60;99.90;;;;;;4951549;28;20050;-80
2023/01/11 04:34:45;;;;;;;13.00;3.33;;;0.70;99.90;;;;;;4985812;28;20055;-80
2023/01/11 04:37:13;;;;;;;4.22;3.92;;;0.60;99.90;;;;;;4983653;28;20054;-80
2023/01/11 04:39:41;;;;;;;4.38;3.15;;;0.60;99.90;;;;;;4967828;28;20061;-80
2023/01/11 04:42:17;;;;;;;5.32;4.47;;;0.60;99.90;;;;;;4975719;28;20415;-80
2023/01/11 04:44:49;;;;;;;3.28;3.08;;;0.70;99.90;;;;;;4975329;28;20061;-79
2023/01/11 04:47:19;;;;;;;3.30;2.95;;;0.60;99.90;;;;;;4992740;28;20057;-80
2023/01/11 04:49:47;;;;;;;2.38;2.17;;;0.60;99.90;;;;;;4974564;28;20513;-80
2023/01/11 04:52:17;;;;;;;2.42;2.25;;;0.50;99.90;;;;;;4991351;28;20054;-80
2023/01/11 04:54:46;;;;;;;4.90;2.47;;;0.60;99.90;;;;;;4992825;28;20065;-80
2023/01/11 04:57:16;;;;;;;1.80;1.70;;;0.50;99.90;;;;;;4992732;28;20739;-79
2023/01/11 04:59:46;;;;;;;2.75;2.55;;;0.60;99.90;;;;;;4974931;28;20395;-80
2023/01/11 05:02:15;;;;;;;3.75;3.42;;;0.50;99.90;;;;;;4992574;28;20054;-79
2023/01/11 05:04:43;;;;;;;3.40;3.05;;;0.50;99.90;;;;;;4961496;28;20132;-79
2023/01/11 05:07:10;;;;;;;3.05;2.80;;;0.60;99.90;;;;;;4990698;28;20054;-79
2023/01/11 05:09:39;;;;;;;2.22;2.13;;;0.60;99.90;;;;;;5003460;28;20049;-82
2023/01/11 05:12:07;;;;;;;3.75;2.47;;;0.60;99.90;;;;;;4994317;28;20053;-79
2023/01/11 05:14:34;;;;;;;3.33;2.92;;;0.70;99.90;;;;;;5011918;28;20322;-79
2023/01/11 05:17:02;;;;;;;3.47;3.22;;;0.70;99.90;;;;;;5011429;28;20054;-79
2023/01/11 05:19:30;;;;;;;3.08;2.85;;;0.70;99.90;;;;;;4994424;28;20045;-80
2023/01/11 05:21:57;;;;;;;3.58;2.97;;;0.70;99.90;;;;;;5011706;28;20054;-79
2023/01/11 05:24:25;;;;;;;4.10;2.58;;;0.70;99.90;;;;;;4992711;28;20066;-79
2023/01/11 05:26:53;;;;;;;2.45;2.25;;;0.60;99.90;;;;;;4994366;28;20069;-80
2023/01/11 05:29:20;;;;;;;3.20;2.83;;;0.70;99.90;;;;;;4977593;28;20046;-79
2023/01/11 05:31:48;;;;;;;5.20;4.43;;;0.70;99.90;;;;;;5010334;28;20042;-79
2023/01/11 05:34:16;;;;;;;3.03;2.83;;;0.70;99.90;;;;;;5010406;28;20049;-79
2023/01/11 05:36:44;;;;;;;4.35;2.88;;;0.70;99.90;;;;;;4988972;28;20042;-79
2023/01/11 05:39:13;;;;;;;15.88;4.25;;;0.70;99.90;;;;;;5023124;28;20416;-79
2023/01/11 05:41:40;;;;;;;2.80;2.33;;;0.70;99.90;;;;;;4973418;28;20050;-79
2023/01/11 05:46:59;;;;;;;2.38;2.22;;;0.60;99.90;;;;;;5002868;28;20050;-79
2023/01/11 05:49:27;;;;;;;4.72;2.92;;;0.70;99.90;;;;;;4992951;28;20053;-79
2023/01/11 05:51:55;;;;;;;4.97;3.47;;;0.70;99.90;;;;;;5011568;28;20417;-79
2023/01/11 05:54:22;;;;;;;3.38;2.28;;;0.80;99.90;;;;;;5009198;28;20407;-79
2023/01/11 05:56:50;;;;;;;3.13;2.85;;;0.70;99.90;;;;;;5010768;28;20038;-79
2023/01/11 05:59:17;;;;;;;4.47;2.70;;;0.70;99.90;;;;;;5022112;28;20056;-79
2023/01/11 06:01:46;;;;;;;6.75;3.67;;;0.80;99.90;;;;;;5012221;28;20412;-79
2023/01/11 06:04:13;;;;;;;2.33;2.22;;;0.80;99.90;;;;;;5013045;28;20541;-79
2023/01/11 06:06:42;;;;;;;4.85;3.70;;;0.80;99.90;;;;;;5013289;28;20049;-79
2023/01/11 06:09:10;;;;;;;2.63;2.53;;;0.70;99.90;;;;;;5029064;28;20053;-79
2023/01/11 06:11:37;;;;;;;5.45;2.85;;;0.80;99.90;;;;;;4996500;28;20528;-79
2023/01/11 06:14:05;;;;;;;3.30;3.10;;;0.80;99.90;;;;;;4996988;28;20053;-79
2023/01/11 06:16:33;;;;;;;2.95;2.63;;;0.80;99.90;;;;;;5029957;28;20053;-79
2023/01/11 06:19:01;;;;;;;3.42;3.17;;;0.80;99.90;;;;;;4996856;28;20049;-79
2023/01/11 06:21:29;;;;;;;8.38;5.50;;;0.80;99.90;;;;;;5011970;28;20049;-80
2023/01/11 06:23:56;;;;;;;5.90;4.15;;;0.80;99.90;;;;;;4991781;28;20508;-80
2023/01/11 06:26:24;;;;;;;5.13;3.85;;;0.80;99.90;;;;;;5010247;28;20053;-79
2023/01/11 06:28:52;;;;;;;6.75;4.43;;;0.80;99.90;;;;;;4992616;28;20046;-79
2023/01/11 06:31:20;;;;;;;4.32;3.38;;;0.80;99.90;;;;;;5008186;28;20057;-79
2023/01/11 06:33:48;;;;;;;9.75;8.45;;;0.70;99.90;;;;;;4992511;28;20042;-79
2023/01/11 06:36:16;;;;;;;7.35;5.57;;;0.70;99.90;;;;;;5000288;28;20506;-79
2023/01/11 06:38:44;;;;;;;3.83;3.58;;;0.70;99.90;;;;;;5008613;28;20042;-80
2023/01/11 06:41:12;;;;;;;3.35;3.05;;;0.70;99.90;;;;;;5004550;28;20050;-79
2023/01/11 06:43:40;;;;;;;7.03;6.38;;;0.70;99.90;;;;;;5009106;28;20046;-80
2023/01/11 06:46:12;;;;;;;11.23;4.18;;;0.80;99.90;;;;;;5010760;28;20069;-79
2023/01/11 06:48:46;;;;;;;4.40;4.07;;;0.80;99.90;;;;;;5008867;28;20536;-79
2023/01/11 06:51:15;;;;;;;4.38;3.97;;;0.80;99.90;;;;;;5000877;28;20062;-79
2023/01/11 06:53:44;;;;;;;3.55;3.33;;;0.80;99.90;;;;;;5008490;28;20049;-79
2023/01/11 06:56:17;;;;;;;4.20;3.90;;;0.90;99.90;;;;;;4976259;28;20053;-79
2023/01/11 06:58:46;;;;;;;4.20;3.30;;;0.80;99.90;;;;;;4993049;28;20056;-79
2023/01/11 07:01:16;;;;;;;3.97;3.67;;;0.80;99.90;;;;;;5010050;28;20577;-79
2023/01/11 07:03:44;;;;;;;6.00;3.97;;;0.90;99.90;;;;;;4985463;28;20451;-79
2023/01/11 07:06:12;;;;;;;4.65;3.40;;;0.90;99.90;;;;;;4989562;28;20490;-79
2023/01/11 07:08:41;;;;;;;3.25;3.00;;;1.00;99.90;;;;;;4955947;28;20054;-79
2023/01/11 07:11:09;;;;;;;2.90;2.70;;;1.00;99.90;;;;;;4976062;28;20065;-79
2023/01/11 07:13:37;;;;;;;3.13;2.92;;;1.00;99.90;;;;;;4992186;28;20042;-79
2023/01/11 07:16:07;;;;;;;4.00;3.50;;;1.10;99.90;;;;;;4993411;28;20049;-79
2023/01/11 07:18:36;;;;;;;3.05;2.85;;;1.10;99.90;;;;;;4992996;28;20041;-79
2023/01/11 07:21:04;;;;;;;4.07;3.25;;;1.10;99.90;;;;;;4991961;28;20529;-79
2023/01/11 07:23:31;;;;;;;3.35;2.60;;;1.20;99.90;;;;;;4991303;28;20042;-80
2023/01/11 07:25:59;;;;;;;6.32;3.60;;;1.20;99.90;;;;;;5007969;28;20061;-79
2023/01/11 07:28:29;;;;;;;3.35;3.08;;;1.20;99.90;;;;;;4992869;28;20057;-79
2023/01/11 07:30:57;;;;;;;2.65;2.45;;;1.30;99.90;;;;;;5010141;28;20445;-79
2023/01/11 07:33:27;;;;;;;3.78;3.53;;;1.30;99.90;;;;;;5009322;28;20659;-79
2023/01/11 07:35:55;;;;;;;3.83;3.53;;;1.30;99.90;;;;;;4982424;28;20530;-79
2023/01/11 07:38:23;;;;;;;3.25;2.95;;;1.30;99.90;;;;;;4988562;28;20053;-79
2023/01/11 07:40:50;;;;;;;3.75;3.38;;;1.40;99.90;;;;;;4952220;28;20498;-79
2023/01/11 07:43:21;;;;;;;2.97;2.78;;;1.40;99.90;;;;;;4956794;28;20049;-79
2023/01/11 07:45:50;;;;;;;;;;;1.50;99.90;;;;;;4990213;28;20046;-79
2023/01/11 07:48:23;;;;;;;3.05;2.85;;;1.50;99.90;;;;;;4972068;28;20071;-79
2023/01/11 07:50:52;;;;;;;2.97;2.67;;;1.60;99.90;;;;;;4957150;28;20497;-79
2023/01/11 07:53:24;;;;;;;3.58;3.25;;;1.60;99.90;;;;;;4955782;28;20528;-79
2023/01/11 07:55:53;;;;;;;3.03;2.03;;;1.70;99.90;;;;;;4956374;28;20517;-79
2023/01/11 07:58:21;;;;;;;2.50;2.30;;;1.80;99.90;;;;;;4973630;28;20054;-79
2023/01/11 08:00:48;;;;;;;3.35;2.90;;;1.90;99.90;;;;;;4990208;28;20038;-79
2023/01/11 08:03:16;;;;;;;4.70;2.75;;;1.80;99.90;;;;;;4990985;28;20054;-79
2023/01/11 08:05:50;;;;;;;2.38;2.28;;;2.00;99.90;;;;;;4975940;28;20056;-79
2023/01/11 08:08:19;;;;;;;3.67;3.25;;;2.00;99.90;;;;;;4967940;28;20050;-79
2023/01/11 08:14:37;;;;;;;5.47;2.97;;;2.00;99.90;;;;;;4976253;28;20062;-79
2023/01/11 08:16:22;;;;;;;4.47;2.42;;;2.20;99.90;;;;;;4975992;28;20058;-79
2023/01/11 08:18:51;;;;;;;5.53;4.55;;;2.20;99.90;;;;;;4960225;28;20054;-79
2023/01/11 08:21:20;;;;;;;3.33;2.90;;;2.30;99.90;;;;;;4975911;28;20430;-79
2023/01/11 08:23:47;;;;;;;6.57;4.38;;;2.40;99.90;;;;;;4958752;28;20387;-79
2023/01/11 08:26:16;;;;;;;3.75;3.05;;;2.40;99.90;;;;;;4975826;28;20050;-79
2023/01/11 08:28:45;;;;;;;3.47;3.17;;;2.50;99.90;;;;;;4992092;28;20046;-79
2023/01/11 08:31:12;;;;;;;4.78;3.63;;;2.60;99.90;;;;;;4991066;28;20046;-79
2023/01/11 08:33:41;;;;;;;3.40;3.15;;;2.70;99.90;;;;;;4995145;28;20051;-79
2023/01/11 08:36:10;;;;;;;3.58;2.92;;;2.80;99.90;;;;;;4988409;28;20043;-79
2023/01/11 08:38:38;;;;;;;3.60;2.88;;;2.90;99.90;;;;;;4971831;28;20065;-79
2023/01/11 08:41:09;;;;;;;3.05;2.75;;;3.00;99.90;;;;;;4985407;28;20541;-79
2023/01/11 08:43:39;;;;;;;4.43;2.45;;;3.00;99.90;;;;;;5012039;28;20501;-79
2023/01/11 08:46:08;;;;;;;5.07;2.65;;;3.10;99.90;;;;;;5013393;28;20409;-79
2023/01/11 08:48:36;;;;;;;3.85;2.80;;;3.20;99.90;;;;;;5012051;28;20038;-80
2023/01/11 08:51:04;;;;;;;2.85;2.65;;;3.40;99.90;;;;;;4995344;28;20061;-80
2023/01/11 08:53:32;;;;;;;4.65;2.80;;;3.30;99.90;;;;;;5010650;28;20065;-80
2023/01/11 08:55:59;;;;;;;4.80;2.13;;;3.30;99.90;;;;;;5012051;28;20042;-80
2023/01/11 08:58:27;;;;;;;3.22;2.95;;;3.30;99.90;;;;;;4995053;28;20050;-80
2023/01/11 09:01:01;;;;;;;2.80;2.20;;;3.40;99.90;;;;;;4994315;28;20049;-80
2023/01/11 09:03:29;;;;;;;2.97;2.30;;;3.40;99.90;;;;;;4994639;28;20054;-80
2023/01/11 09:05:58;;;;;;;2.38;2.17;;;3.50;99.90;;;;;;5011788;28;20065;-80
2023/01/11 09:08:27;;;;;;;3.45;3.15;;;3.50;99.90;;;;;;4993179;28;20049;-80
2023/01/11 09:10:55;;;;;;;3.78;3.50;;;3.60;99.90;;;;;;5011242;28;20054;-80
2023/01/11 09:13:23;;;;;;;7.03;6.45;;;3.70;99.90;;;;;;5008366;28;20042;-80
2023/01/11 09:15:55;;;;;;;3.13;2.92;;;3.80;99.90;;;;;;4959015;28;20039;-80
2023/01/11 09:18:25;;;;;;;3.35;3.05;;;3.90;99.90;;;;;;4959244;28;20522;-80
2023/01/11 09:20:53;;;;;;;4.07;3.77;;;4.00;99.90;;;;;;4942622;28;20042;-80
2023/01/11 09:23:22;;;;;;;5.78;3.95;;;4.10;99.90;;;;;;4988204;28;20050;-80
2023/01/11 09:25:50;;;;;;;2.90;2.63;;;4.20;99.90;;;;;;4973093;28;20042;-80
2023/01/11 09:28:18;;;;;;;5.07;2.58;;;4.20;99.90;;;;;;4966154;28;20041;-80
2023/01/11 09:30:45;;;;;;;2.70;2.53;;;4.20;99.90;;;;;;4990330;28;20058;-80
2023/01/11 09:33:13;;;;;;;2.00;1.90;;;4.30;99.90;;;;;;4968015;28;20054;-80
2023/01/11 09:35:41;;;;;;;2.30;2.10;;;4.40;99.90;;;;;;4980912;28;20059;-80
2023/01/11 09:38:14;;;;;;;3.03;2.72;;;4.40;99.90;;;;;;4966031;28;20054;-80
2023/01/11 09:40:55;;;;;;;2.60;2.45;;;4.40;99.90;;;;;;4990257;28;20045;-80
2023/01/11 09:43:26;;;;;;;6.72;3.60;;;4.40;99.90;;;;;;4987766;28;20047;-80
2023/01/11 09:45:59;;;;;;;2.08;1.98;;;4.40;99.90;;;;;;4951632;28;20058;-80
2023/01/11 09:48:43;;;;;;;2.60;2.47;;;4.40;99.90;;;;;;4966418;28;20046;-80
2023/01/11 09:51:14;;;;;;;3.58;2.72;;;4.40;99.90;;;;;;4979097;28;20046;-80
2023/01/11 09:53:49;;;;;;;2.47;2.35;;;4.40;99.90;;;;;;4967605;28;20053;-80
2023/01/11 09:56:37;;;;;;;3.97;3.60;;;4.40;99.90;;;;;;4984079;28;20045;-80
2023/01/11 09:59:36;;;;;;;4.68;3.67;;;4.60;99.90;;;;;;4951142;28;20051;-81
2023/01/11 10:02:37;;;;;;;8.00;5.40;;;4.70;99.90;;;;;;4985540;28;20057;-80
2023/01/11 10:05:34;;;;;;;3.63;3.22;;;4.90;99.90;;;;;;4986132;28;20330;-80
2023/01/11 10:08:02;;;;;;;2.65;2.50;;;4.90;99.90;;;;;;5000316;28;20041;-80
2023/01/11 10:11:41;;;;;;;4.03;3.72;;;5.00;99.90;;;;;;4983272;28;20054;-80
2023/01/11 10:14:55;;;;;;;2.72;2.53;;;5.10;99.90;;;;;;4947346;28;20050;-80
2023/01/11 10:17:45;;;;;;;3.22;2.92;;;5.10;99.90;;;;;;4998453;28;20054;-80
2023/01/11 10:20:42;;;;;;;4.63;3.42;;;5.00;99.90;;;;;;5000477;28;20058;-79
2023/01/11 10:23:23;;;;;;;6.53;3.78;;;5.10;99.90;;;;;;4973520;28;20073;-80
2023/01/11 10:25:56;;;;;;;3.63;3.28;;;5.10;99.90;;;;;;4970125;28;20081;-80
2023/01/11 10:28:44;;;;;;;3.45;2.40;;;5.10;99.90;;;;;;4952908;28;20054;-80
2023/01/11 10:31:47;;;;;;;3.60;3.30;;;5.20;99.90;;;;;;4985249;28;20050;-80
2023/01/11 10:34:55;;;;;;;3.05;2.80;;;5.20;99.90;;;;;;4955339;28;20041;-80
2023/01/11 10:37:45;;;;;;;3.97;3.35;;;5.20;99.90;;;;;;4962713;28;20096;-80
2023/01/11 10:41:14;;;;;;;4.80;3.72;;;5.30;99.90;;;;;;4954138;28;20046;-80
2023/01/11 10:43:44;;;;;;;2.10;1.90;;;5.40;99.90;;;;;;4950907;28;20054;-80
2023/01/11 10:46:19;;;;;;;2.92;2.72;;;5.40;99.90;;;;;;4959254;28;20442;-80
2023/01/11 10:48:59;;;;;;;3.88;2.75;;;5.50;99.90;;;;;;4936195;28;20050;-80
2023/01/11 10:51:36;;;;;;;2.25;2.15;;;5.50;99.90;;;;;;4953929;28;20062;-81
2023/01/11 10:54:21;;;;;;;2.60;2.40;;;5.50;99.90;;;;;;4971480;28;20189;-80
2023/01/11 10:57:00;;;;;;;3.25;2.22;;;5.50;99.90;;;;;;4970996;28;20065;-80
2023/01/11 11:00:09;;;;;;;5.03;2.85;;;5.50;99.90;;;;;;4971530;28;20061;-81
2023/01/11 11:02:50;;;;;;;3.30;3.05;;;5.50;99.90;;;;;;4973390;28;20391;-80
2023/01/11 11:05:21;;;;;;;;;;;5.50;99.90;;;;;;4945191;28;20059;-80
2023/01/11 11:08:04;;;;;;;5.05;3.40;;;5.50;99.90;;;;;;4968711;28;19937;-80
2023/01/11 11:10:57;;;;;;;4.90;3.25;;;5.50;99.90;;;;;;4989008;28;20414;-80
2023/01/11 11:13:48;;;;;;;2.85;2.63;;;5.60;99.90;;;;;;5007322;28;20042;-80
2023/01/11 11:16:21;;;;;;;2.25;2.13;;;5.60;99.90;;;;;;4967611;28;20047;-80
2023/01/11 11:18:57;;;;;;;4.00;2.70;;;5.70;99.90;;;;;;4965603;28;20066;-80
2023/01/11 11:21:29;;;;;;;3.85;3.55;;;5.80;99.90;;;;;;4976291;28;20049;-80
2023/01/11 11:24:02;;;;;;;4.18;2.95;;;6.00;99.90;;;;;;4955087;28;20097;-79
2023/01/11 11:26:37;;;;;;;3.33;3.03;;;6.00;99.90;;;;;;4956727;28;20054;-80
2023/01/11 11:29:07;;;;;;;6.88;6.10;;;6.00;99.90;;;;;;4989187;28;20046;-80
2023/01/11 11:31:41;;;;;;;9.00;3.95;;;6.10;99.90;;;;;;4976251;28;20055;-80
2023/01/11 11:34:16;;;;;;;4.82;3.83;;;6.20;99.90;;;;;;5009719;28;20058;-80
2023/01/11 11:36:50;;;;;;;4.13;3.80;;;6.20;99.90;;;;;;4979959;28;20041;-80
2023/01/11 11:39:19;;;;;;;2.72;1.85;;;6.30;99.90;;;;;;5029362;28;20393;-80
2023/01/11 11:41:50;;;;;;;3.13;2.70;;;6.40;99.90;;;;;;4995582;28;20500;-80
2023/01/11 11:44:35;;;;;;;3.75;3.03;;;6.40;99.90;;;;;;4996508;28;20046;-80
2023/01/11 11:47:05;;;;;;;4.35;2.33;;;6.40;99.90;;;;;;5014682;28;20054;-80
2023/01/11 11:54:05;;;;;;;4.07;3.42;;;6.50;99.90;;;;;;4991781;28;20387;-80
2023/01/11 11:56:36;;;;;;;6.55;2.80;;;6.60;99.90;;;;;;5023028;28;20068;-81
2023/01/11 11:59:08;;;;;;;6.90;3.10;;;6.60;99.90;;;;;;5035131;28;20057;-81
2023/01/11 12:01:42;;;;;;;2.55;2.35;;;6.50;99.90;;;;;;5029375;28;20049;-81
2023/01/11 12:04:17;;;;;;;2.50;2.30;;;6.60;99.90;;;;;;5018285;28;20054;-81
2023/01/11 12:07:05;;;;;;;2.72;2.53;;;6.60;99.90;;;;;;5018220;28;20046;-81
2023/01/11 12:09:35;;;;;;;4.40;3.42;;;6.70;99.90;;;;;;5000872;28;20052;-82
2023/01/11 12:12:04;;;;;;;3.83;3.40;;;6.70;99.90;;;;;;5035894;28;20046;-81
2023/01/11 12:14:34;;;;;;;3.17;2.60;;;6.60;99.90;;;;;;5018335;28;20038;-81
2023/01/11 12:17:22;;;;;;;3.28;2.95;;;6.70;99.90;;;;;;5023146;28;20038;-81
2023/01/11 12:19:51;;;;;;;3.92;3.63;;;6.80;99.90;;;;;;5000545;28;20029;-81
2023/01/11 12:22:27;;;;;;;2.67;2.40;;;6.80;99.90;;;;;;5016032;28;20050;-79
2023/01/11 12:25:24;;;;;;;4.22;3.25;;;6.70;99.90;;;;;;5016967;28;20508;-79
2023/01/11 12:28:27;;;;;;;3.22;2.35;;;6.80;99.90;;;;;;4994644;28;20128;-79
2023/01/11 12:31:06;;;;;;;3.10;1.88;;;6.80;99.90;;;;;;5030462;28;20038;-79
2023/01/11 12:33:47;;;;;;;2.95;1.98;;;6.80;99.90;;;;;;4993839;28;20047;-80
2023/01/11 12:36:45;;;;;;;3.50;2.90;;;6.80;99.90;;;;;;5009955;28;20038;-79
2023/01/11 12:39:20;;;;;;;1.98;1.80;;;6.80;99.90;;;;;;4978179;28;20049;-79
2023/01/11 12:42:09;;;;;;;5.90;2.75;;;6.90;99.90;;;;;;4978198;28;20058;-78
2023/01/11 12:45:06;;;;;;;3.20;2.13;;;6.80;99.90;;;;;;4996726;28;20060;-79
2023/01/11 12:48:07;;;;;;;3.70;2.05;;;6.80;99.90;;;;;;4988429;28;20054;-79
2023/01/11 12:51:00;;;;;;;1.73;1.63;;;6.80;99.90;;;;;;4981068;28;20042;-78
2023/01/11 12:53:47;;;;;;;4.88;2.30;;;6.70;99.90;;;;;;5012623;28;20039;-78
2023/01/11 12:56:36;;;;;;;4.25;3.50;;;6.70;99.90;;;;;;4977628;28;20043;-79
2023/01/11 12:59:16;;;;;;;3.67;2.95;;;6.70;99.90;;;;;;5013092;28;20054;-78
2023/01/11 13:02:14;;;;;;;2.83;2.63;;;6.70;99.90;;;;;;5013141;28;20061;-78
2023/01/11 13:04:52;;;;;;;3.67;2.63;;;6.80;99.90;;;;;;4993722;28;20039;-78
2023/01/11 13:07:41;;;;;;;3.00;1.85;;;6.80;99.90;;;;;;4996698;28;20056;-78
2023/01/11 13:10:43;;;;;;;1.90;1.80;;;6.80;99.90;;;;;;4965033;28;20050;-78
2023/01/11 13:13:18;;;;;;;2.17;2.08;;;6.80;99.90;;;;;;5017531;28;20042;-78
2023/01/11 13:16:12;;;;;;;1.83;1.73;;;6.70;99.90;;;;;;4981425;28;20043;-78
2023/01/11 13:18:56;;;;;;;2.72;2.05;;;6.70;99.90;;;;;;5014037;28;20038;-78
2023/01/11 13:21:32;;;;;;;1.63;1.52;;;6.70;99.90;;;;;;5023569;28;20061;-78
2023/01/11 13:24:09;;;;;;;1.88;1.77;;;6.70;99.90;;;;;;4978267;28;20056;-78
2023/01/11 13:26:41;;;;;;;4.03;1.90;;;6.70;99.90;;;;;;4989933;28;20047;-78
2023/01/11 13:29:29;;;;;;;1.80;1.52;;;6.70;99.90;;;;;;4998969;28;20060;-78
2023/01/11 13:32:01;;;;;;;3.20;1.60;;;6.70;99.90;;;;;;4999040;28;20027;-79
2023/01/11 13:34:38;;;;;;;;;;;6.60;99.90;;;;;;5005185;28;20048;-79
2023/01/11 13:37:58;;;;;;;2.25;2.03;;;6.70;99.90;;;;;;5020724;28;20133;-79
2023/01/11 13:40:34;;;;;;;2.03;1.73;;;6.70;99.90;;;;;;4991991;28;20245;-79
2023/01/11 13:43:14;;;;;;;2.83;1.92;;;6.70;99.90;;;;;;5009857;28;20053;-78
2023/01/11 13:46:02;;;;;;;1.63;1.42;;;6.70;99.90;;;;;;4975440;28;20509;-78
2023/01/11 13:48:40;;;;;;;1.50;1.40;;;6.80;99.90;;;;;;4983794;28;20055;-78
2023/01/11 13:51:17;;;;;;;1.80;1.67;;;6.70;99.90;;;;;;4981180;28;20057;-79
2023/01/11 13:54:07;;;;;;;3.47;1.83;;;6.60;99.90;;;;;;4986430;28;20062;-78
2023/01/11 13:56:45;;;;;;;3.10;2.00;;;6.60;99.90;;;;;;4987292;28;20054;-78
2023/01/11 13:59:21;;;;;;;3.03;2.40;;;6.60;99.90;;;;;;4963858;28;20501;-78
2023/01/11 14:01:52;;;;;;;2.05;1.85;;;6.50;99.90;;;;;;4984368;28;20696;-79
2023/01/11 14:04:26;;;;;;;2.65;2.45;;;6.50;99.90;;;;;;4998003;28;20476;-78